createdAt,value
2017-02-19T00:00:36.843Z,1019.88
2017-02-19T00:01:48.272Z,1019.88
2017-02-19T00:02:59.726Z,1019.87
2017-02-19T00:04:11.202Z,1019.84
2017-02-19T00:05:22.628Z,1019.81
2017-02-19T00:06:34.093Z,1019.8
2017-02-19T00:07:45.725Z,1019.76
2017-02-19T00:08:57.190Z,1019.75
2017-02-19T00:10:08.623Z,1019.76
2017-02-19T00:11:20.070Z,1019.78
2017-02-19T00:12:31.518Z,1019.76
2017-02-19T00:13:42.951Z,1019.78
2017-02-19T00:14:54.433Z,1019.78
2017-02-19T00:16:05.865Z,1019.76
2017-02-19T00:17:17.321Z,1019.75
2017-02-19T00:18:28.778Z,1019.74
2017-02-19T00:19:40.215Z,1019.69
2017-02-19T00:20:51.663Z,1019.71
2017-02-19T00:22:03.104Z,1019.7
2017-02-19T00:23:14.540Z,1019.7
2017-02-19T00:24:25.958Z,1019.66
2017-02-19T00:25:37.396Z,1019.68
2017-02-19T00:26:48.825Z,1019.63
2017-02-19T00:28:00.263Z,1019.64
2017-02-19T00:29:11.684Z,1019.63
2017-02-19T00:30:23.141Z,1019.59
2017-02-19T00:31:34.612Z,1019.6
2017-02-19T00:32:46.059Z,1019.57
2017-02-19T00:33:57.722Z,1019.58
2017-02-19T00:35:09.142Z,1019.58
2017-02-19T00:36:20.789Z,1019.58
2017-02-19T00:37:32.233Z,1019.58
2017-02-19T00:38:43.682Z,1019.53
2017-02-19T00:39:55.113Z,1019.56
2017-02-19T00:41:06.540Z,1019.54
2017-02-19T00:42:18.041Z,1019.6
2017-02-19T00:43:29.465Z,1019.54
2017-02-19T00:44:40.921Z,1019.55
2017-02-19T00:45:52.579Z,1019.47
2017-02-19T00:47:04.008Z,1019.5
2017-02-19T00:48:15.453Z,1019.46
2017-02-19T00:49:26.894Z,1019.42
2017-02-19T00:50:38.537Z,1019.43
2017-02-19T00:51:49.964Z,1019.43
2017-02-19T00:53:01.455Z,1019.43
2017-02-19T00:54:12.875Z,1019.43
2017-02-19T00:55:24.297Z,1019.44
2017-02-19T00:56:35.721Z,1019.39
2017-02-19T00:57:47.349Z,1019.37
2017-02-19T00:58:58.780Z,1019.38
2017-02-19T01:00:10.202Z,1019.4
2017-02-19T01:01:21.625Z,1019.38
2017-02-19T01:02:33.268Z,1019.41
2017-02-19T01:03:44.703Z,1019.36
2017-02-19T01:04:56.140Z,1019.39
2017-02-19T01:06:07.804Z,1019.37
2017-02-19T01:07:19.445Z,1019.34
2017-02-19T01:08:30.896Z,1019.31
2017-02-19T01:09:42.388Z,1019.31
2017-02-19T01:10:53.833Z,1019.29
2017-02-19T01:12:05.280Z,1019.23
2017-02-19T01:13:16.703Z,1019.28
2017-02-19T01:14:28.128Z,1019.28
2017-02-19T01:15:39.567Z,1019.25
2017-02-19T01:16:51.009Z,1019.27
2017-02-19T01:18:02.454Z,1019.26
2017-02-19T01:19:13.964Z,1019.29
2017-02-19T01:20:25.598Z,1019.25
2017-02-19T01:21:37.031Z,1019.23
2017-02-19T01:22:48.667Z,1019.24
2017-02-19T01:24:00.108Z,1019.21
2017-02-19T01:25:11.563Z,1019.24
2017-02-19T01:26:22.990Z,1019.22
2017-02-19T01:27:34.411Z,1019.18
2017-02-19T01:28:45.846Z,1019.15
2017-02-19T01:29:57.339Z,1019.15
2017-02-19T01:31:08.779Z,1019.24
2017-02-19T01:32:20.208Z,1019.2
2017-02-19T01:33:31.838Z,1019.17
2017-02-19T01:34:43.319Z,1019.17
2017-02-19T01:35:54.771Z,1019.05
2017-02-19T01:37:06.200Z,1019.1
2017-02-19T01:38:17.629Z,1019.04
2017-02-19T01:39:29.074Z,1019.09
2017-02-19T01:40:40.577Z,1019.12
2017-02-19T01:41:52.005Z,1019.09
2017-02-19T01:43:03.438Z,1019.14
2017-02-19T01:44:14.860Z,1019.09
2017-02-19T01:45:26.325Z,1019.14
2017-02-19T01:46:37.736Z,1019.07
2017-02-19T01:47:49.175Z,1019.06
2017-02-19T01:49:00.610Z,1019.08
2017-02-19T01:50:12.230Z,1019.07
2017-02-19T01:51:23.652Z,1019.04
2017-02-19T01:52:35.085Z,1019.05
2017-02-19T01:53:46.512Z,1019
2017-02-19T01:54:57.942Z,1018.95
2017-02-19T01:56:09.364Z,1018.95
2017-02-19T01:57:20.781Z,1018.9
2017-02-19T01:58:32.265Z,1018.87
2017-02-19T01:59:43.898Z,1018.82
2017-02-19T02:00:55.334Z,1018.8
2017-02-19T02:02:06.762Z,1018.78
2017-02-19T02:03:18.200Z,1018.83
2017-02-19T02:04:29.647Z,1018.76
2017-02-19T02:05:41.076Z,1018.7
2017-02-19T02:06:52.493Z,1018.64
2017-02-19T02:08:03.968Z,1018.67
2017-02-19T02:09:15.596Z,1018.64
2017-02-19T02:10:27.478Z,1018.67
2017-02-19T02:11:38.930Z,1018.69
2017-02-19T02:12:50.773Z,1018.7
2017-02-19T02:14:02.241Z,1018.69
2017-02-19T02:15:13.688Z,1018.65
2017-02-19T02:16:25.157Z,1018.63
2017-02-19T02:17:36.575Z,1018.6
2017-02-19T02:18:48.062Z,1018.58
2017-02-19T02:19:59.519Z,1018.56
2017-02-19T02:21:10.945Z,1018.52
2017-02-19T02:22:22.389Z,1018.51
2017-02-19T02:23:34.013Z,1018.5
2017-02-19T02:24:45.442Z,1018.5
2017-02-19T02:25:57.078Z,1018.51
2017-02-19T02:27:08.717Z,1018.53
2017-02-19T02:28:20.135Z,1018.48
2017-02-19T02:29:31.847Z,1018.44
2017-02-19T02:30:43.288Z,1018.37
2017-02-19T02:31:54.723Z,1018.38
2017-02-19T02:33:06.173Z,1018.33
2017-02-19T02:34:17.807Z,1018.3
2017-02-19T02:35:29.234Z,1018.3
2017-02-19T02:36:40.710Z,1018.3
2017-02-19T02:37:52.195Z,1018.24
2017-02-19T02:39:03.638Z,1018.17
2017-02-19T02:40:15.263Z,1018.17
2017-02-19T02:41:26.742Z,1018.22
2017-02-19T02:42:38.376Z,1018.23
2017-02-19T02:43:49.808Z,1018.25
2017-02-19T02:45:01.250Z,1018.23
2017-02-19T02:46:12.685Z,1018.22
2017-02-19T02:47:24.121Z,1018.22
2017-02-19T02:48:35.559Z,1018.2
2017-02-19T02:49:47.010Z,1018.24
2017-02-19T02:50:58.706Z,1018.26
2017-02-19T02:52:10.145Z,1018.23
2017-02-19T02:53:21.572Z,1018.18
2017-02-19T02:54:33.000Z,1018.12
2017-02-19T02:55:44.440Z,1018.13
2017-02-19T02:56:56.075Z,1018.12
2017-02-19T02:58:07.521Z,1018.12
2017-02-19T02:59:18.970Z,1018.16
2017-02-19T03:00:30.399Z,1018.14
2017-02-19T03:01:41.885Z,1018.07
2017-02-19T03:02:53.324Z,1018.1
2017-02-19T03:04:04.972Z,1018.11
2017-02-19T03:05:16.607Z,1018.08
2017-02-19T03:06:28.027Z,1018.03
2017-02-19T03:07:39.645Z,1018.06
2017-02-19T03:08:51.298Z,1018.07
2017-02-19T03:10:02.937Z,1018.05
2017-02-19T03:11:14.370Z,1018.04
2017-02-19T03:12:26.062Z,1018.07
2017-02-19T03:13:37.520Z,1018.02
2017-02-19T03:14:49.146Z,1017.99
2017-02-19T03:16:00.587Z,1017.92
2017-02-19T03:17:12.026Z,1017.9
2017-02-19T03:18:23.452Z,1017.89
2017-02-19T03:19:34.885Z,1017.91
2017-02-19T03:20:46.322Z,1017.94
2017-02-19T03:21:57.781Z,1017.95
2017-02-19T03:23:09.226Z,1017.92
2017-02-19T03:24:20.705Z,1017.94
2017-02-19T03:25:32.340Z,1017.91
2017-02-19T03:26:43.782Z,1017.91
2017-02-19T03:27:55.214Z,1017.84
2017-02-19T03:29:06.659Z,1017.81
2017-02-19T03:30:18.294Z,1017.83
2017-02-19T03:31:29.930Z,1017.81
2017-02-19T03:32:41.363Z,1017.81
2017-02-19T03:33:52.850Z,1017.83
2017-02-19T03:35:04.284Z,1017.83
2017-02-19T03:36:15.754Z,1017.83
2017-02-19T03:37:27.220Z,1017.86
2017-02-19T03:38:38.648Z,1017.87
2017-02-19T03:39:50.094Z,1017.85
2017-02-19T03:41:01.530Z,1017.83
2017-02-19T03:42:12.962Z,1017.86
2017-02-19T03:43:24.400Z,1017.82
2017-02-19T03:44:35.897Z,1017.81
2017-02-19T03:45:47.323Z,1017.78
2017-02-19T03:46:58.742Z,1017.79
2017-02-19T03:48:10.177Z,1017.8
2017-02-19T03:49:21.821Z,1017.8
2017-02-19T03:50:33.258Z,1017.85
2017-02-19T03:51:44.693Z,1017.79
2017-02-19T03:52:56.134Z,1017.73
2017-02-19T03:54:07.579Z,1017.71
2017-02-19T03:55:19.074Z,1017.66
2017-02-19T03:56:30.515Z,1017.65
2017-02-19T03:57:41.933Z,1017.66
2017-02-19T03:58:53.394Z,1017.58
2017-02-19T04:00:04.840Z,1017.63
2017-02-19T04:01:16.342Z,1017.62
2017-02-19T04:02:27.775Z,1017.6
2017-02-19T04:03:39.211Z,1017.61
2017-02-19T04:04:50.655Z,1017.6
2017-02-19T04:06:02.109Z,1017.6
2017-02-19T04:07:13.553Z,1017.65
2017-02-19T04:08:24.985Z,1017.59
2017-02-19T04:09:36.618Z,1017.61
2017-02-19T04:10:48.258Z,1017.66
2017-02-19T04:11:59.692Z,1017.62
2017-02-19T04:13:11.386Z,1017.58
2017-02-19T04:14:22.832Z,1017.58
2017-02-19T04:15:34.279Z,1017.63
2017-02-19T04:16:45.695Z,1017.66
2017-02-19T04:17:57.128Z,1017.62
2017-02-19T04:19:08.576Z,1017.59
2017-02-19T04:20:19.996Z,1017.6
2017-02-19T04:21:31.621Z,1017.56
2017-02-19T04:22:43.100Z,1017.58
2017-02-19T04:23:54.536Z,1017.57
2017-02-19T04:25:05.988Z,1017.54
2017-02-19T04:26:17.413Z,1017.58
2017-02-19T04:27:28.839Z,1017.55
2017-02-19T04:28:40.284Z,1017.53
2017-02-19T04:29:51.714Z,1017.53
2017-02-19T04:31:03.150Z,1017.52
2017-02-19T04:32:14.785Z,1017.53
2017-02-19T04:33:26.265Z,1017.55
2017-02-19T04:34:37.899Z,1017.52
2017-02-19T04:35:49.338Z,1017.49
2017-02-19T04:37:00.795Z,1017.46
2017-02-19T04:38:12.237Z,1017.48
2017-02-19T04:39:23.669Z,1017.53
2017-02-19T04:40:35.321Z,1017.52
2017-02-19T04:41:46.753Z,1017.51
2017-02-19T04:42:58.190Z,1017.51
2017-02-19T04:44:09.680Z,1017.47
2017-02-19T04:45:21.111Z,1017.41
2017-02-19T04:46:32.557Z,1017.39
2017-02-19T04:47:43.996Z,1017.38
2017-02-19T04:48:55.419Z,1017.39
2017-02-19T04:50:06.872Z,1017.32
2017-02-19T04:51:18.340Z,1017.37
2017-02-19T04:52:29.766Z,1017.39
2017-02-19T04:53:41.188Z,1017.37
2017-02-19T04:54:52.615Z,1017.38
2017-02-19T04:56:04.260Z,1017.37
2017-02-19T04:57:15.680Z,1017.35
2017-02-19T04:58:27.320Z,1017.33
2017-02-19T04:59:38.947Z,1017.33
2017-02-19T05:00:50.371Z,1017.34
2017-02-19T05:02:01.861Z,1017.29
2017-02-19T05:03:13.284Z,1017.31
2017-02-19T05:04:24.700Z,1017.28
2017-02-19T05:05:36.340Z,1017.28
2017-02-19T05:06:47.798Z,1017.27
2017-02-19T05:07:59.231Z,1017.24
2017-02-19T05:09:10.653Z,1017.16
2017-02-19T05:10:22.102Z,1017.16
2017-02-19T05:11:33.583Z,1017.15
2017-02-19T05:12:45.053Z,1017.1
2017-02-19T05:13:56.692Z,1017.09
2017-02-19T05:15:08.338Z,1017.04
2017-02-19T05:16:19.787Z,1016.99
2017-02-19T05:17:31.223Z,1016.99
2017-02-19T05:18:42.859Z,1016.98
2017-02-19T05:19:54.304Z,1016.94
2017-02-19T05:21:05.756Z,1016.95
2017-02-19T05:22:17.255Z,1016.97
2017-02-19T05:23:28.704Z,1016.94
2017-02-19T05:24:40.163Z,1016.91
2017-02-19T05:25:51.613Z,1016.85
2017-02-19T05:27:03.241Z,1016.86
2017-02-19T05:28:14.690Z,1016.86
2017-02-19T05:29:26.138Z,1016.85
2017-02-19T05:30:37.570Z,1016.82
2017-02-19T05:31:48.987Z,1016.81
2017-02-19T05:33:00.490Z,1016.86
2017-02-19T05:34:11.933Z,1016.82
2017-02-19T05:35:23.355Z,1016.84
2017-02-19T05:36:34.775Z,1016.85
2017-02-19T05:37:46.201Z,1016.86
2017-02-19T05:38:57.838Z,1016.83
2017-02-19T05:40:09.264Z,1016.81
2017-02-19T05:41:20.703Z,1016.82
2017-02-19T05:42:32.327Z,1016.88
2017-02-19T05:43:43.743Z,1016.86
2017-02-19T05:44:55.245Z,1016.79
2017-02-19T05:46:06.668Z,1016.77
2017-02-19T05:47:18.090Z,1016.76
2017-02-19T05:48:29.527Z,1016.78
2017-02-19T05:49:41.161Z,1016.76
2017-02-19T05:50:52.586Z,1016.72
2017-02-19T05:52:04.017Z,1016.71
2017-02-19T05:53:15.451Z,1016.7
2017-02-19T05:54:26.957Z,1016.69
2017-02-19T05:55:38.386Z,1016.68
2017-02-19T05:56:49.823Z,1016.65
2017-02-19T05:58:01.260Z,1016.6
2017-02-19T05:59:12.690Z,1016.61
2017-02-19T06:00:24.110Z,1016.65
2017-02-19T06:01:35.533Z,1016.66
2017-02-19T06:02:46.978Z,1016.62
2017-02-19T06:03:58.613Z,1016.63
2017-02-19T06:05:10.123Z,1016.64
2017-02-19T06:06:21.568Z,1016.64
2017-02-19T06:07:33.011Z,1016.61
2017-02-19T06:08:44.447Z,1016.58
2017-02-19T06:09:55.909Z,1016.62
2017-02-19T06:11:07.569Z,1016.69
2017-02-19T06:12:19.212Z,1016.68
2017-02-19T06:13:30.648Z,1016.71
2017-02-19T06:14:42.082Z,1016.73
2017-02-19T06:15:53.559Z,1016.75
2017-02-19T06:17:05.196Z,1016.72
2017-02-19T06:18:16.841Z,1016.7
2017-02-19T06:19:28.478Z,1016.71
2017-02-19T06:20:39.900Z,1016.67
2017-02-19T06:21:51.546Z,1016.69
2017-02-19T06:23:02.983Z,1016.73
2017-02-19T06:24:14.405Z,1016.74
2017-02-19T06:25:26.042Z,1016.73
2017-02-19T06:26:37.480Z,1016.7
2017-02-19T06:27:48.967Z,1016.62
2017-02-19T06:29:00.400Z,1016.64
2017-02-19T06:30:11.824Z,1016.62
2017-02-19T06:31:23.256Z,1016.66
2017-02-19T06:32:34.701Z,1016.61
2017-02-19T06:33:46.132Z,1016.57
2017-02-19T06:34:57.566Z,1016.61
2017-02-19T06:36:08.997Z,1016.58
2017-02-19T06:37:20.487Z,1016.63
2017-02-19T06:38:31.921Z,1016.63
2017-02-19T06:39:43.378Z,1016.61
2017-02-19T06:40:54.810Z,1016.58
2017-02-19T06:42:06.257Z,1016.61
2017-02-19T06:43:17.718Z,1016.6
2017-02-19T06:44:29.150Z,1016.65
2017-02-19T06:45:40.580Z,1016.66
2017-02-19T06:46:52.220Z,1016.7
2017-02-19T06:48:03.909Z,1016.66
2017-02-19T06:49:15.346Z,1016.73
2017-02-19T06:50:26.790Z,1016.79
2017-02-19T06:51:38.220Z,1016.8
2017-02-19T06:52:49.858Z,1016.76
2017-02-19T06:54:01.495Z,1016.78
2017-02-19T06:55:13.135Z,1016.77
2017-02-19T06:56:24.569Z,1016.77
2017-02-19T06:57:36.006Z,1016.76
2017-02-19T06:58:47.480Z,1016.71
2017-02-19T06:59:59.108Z,1016.72
2017-02-19T07:01:10.544Z,1016.69
2017-02-19T07:02:22.008Z,1016.7
2017-02-19T07:03:33.438Z,1016.67
2017-02-19T07:04:44.885Z,1016.69
2017-02-19T07:05:56.326Z,1016.68
2017-02-19T07:07:07.944Z,1016.69
2017-02-19T07:08:19.403Z,1016.68
2017-02-19T07:09:30.835Z,1016.72
2017-02-19T07:10:42.321Z,1016.71
2017-02-19T07:11:54.164Z,1016.66
2017-02-19T07:13:05.803Z,1016.66
2017-02-19T07:14:17.241Z,1016.7
2017-02-19T07:15:28.891Z,1016.73
2017-02-19T07:16:40.378Z,1016.74
2017-02-19T07:17:51.806Z,1016.73
2017-02-19T07:19:03.241Z,1016.75
2017-02-19T07:20:14.724Z,1016.75
2017-02-19T07:21:26.166Z,1016.78
2017-02-19T07:22:37.595Z,1016.8
2017-02-19T07:23:49.035Z,1016.79
2017-02-19T07:25:00.472Z,1016.79
2017-02-19T07:26:12.124Z,1016.83
2017-02-19T07:27:23.580Z,1016.83
2017-02-19T07:28:35.019Z,1016.79
2017-02-19T07:29:46.451Z,1016.72
2017-02-19T07:30:57.942Z,1016.77
2017-02-19T07:32:09.372Z,1016.74
2017-02-19T07:33:20.808Z,1016.79
2017-02-19T07:34:32.236Z,1016.78
2017-02-19T07:35:43.673Z,1016.77
2017-02-19T07:36:55.123Z,1016.75
2017-02-19T07:38:06.548Z,1016.75
2017-02-19T07:39:17.985Z,1016.74
2017-02-19T07:40:29.419Z,1016.76
2017-02-19T07:41:40.910Z,1016.7
2017-02-19T07:42:52.349Z,1016.72
2017-02-19T07:44:03.771Z,1016.74
2017-02-19T07:45:15.211Z,1016.75
2017-02-19T07:46:26.639Z,1016.75
2017-02-19T07:47:38.149Z,1016.72
2017-02-19T07:48:49.803Z,1016.76
2017-02-19T07:50:01.240Z,1016.76
2017-02-19T07:51:12.859Z,1016.68
2017-02-19T07:52:24.479Z,1016.77
2017-02-19T07:53:35.909Z,1016.77
2017-02-19T07:54:47.547Z,1016.78
2017-02-19T07:55:58.984Z,1016.76
2017-02-19T07:57:10.418Z,1016.76
2017-02-19T07:58:22.067Z,1016.78
2017-02-19T07:59:33.585Z,1016.73
2017-02-19T08:00:45.037Z,1016.76
2017-02-19T08:01:56.494Z,1016.75
2017-02-19T08:03:07.938Z,1016.73
2017-02-19T08:04:19.377Z,1016.74
2017-02-19T08:05:30.848Z,1016.72
2017-02-19T08:06:42.309Z,1016.67
2017-02-19T08:07:53.750Z,1016.67
2017-02-19T08:09:05.241Z,1016.68
2017-02-19T08:10:16.669Z,1016.66
2017-02-19T08:11:28.107Z,1016.63
2017-02-19T08:12:39.975Z,1016.62
2017-02-19T08:13:51.396Z,1016.57
2017-02-19T08:15:02.837Z,1016.59
2017-02-19T08:16:14.280Z,1016.57
2017-02-19T08:17:25.727Z,1016.52
2017-02-19T08:18:37.179Z,1016.51
2017-02-19T08:19:48.650Z,1016.53
2017-02-19T08:21:00.105Z,1016.5
2017-02-19T08:22:11.748Z,1016.47
2017-02-19T08:23:23.386Z,1016.51
2017-02-19T08:24:34.825Z,1016.49
2017-02-19T08:25:46.467Z,1016.44
2017-02-19T08:26:57.908Z,1016.42
2017-02-19T08:28:09.364Z,1016.43
2017-02-19T08:29:20.800Z,1016.46
2017-02-19T08:30:32.489Z,1016.52
2017-02-19T08:31:43.953Z,1016.48
2017-02-19T08:32:55.393Z,1016.53
2017-02-19T08:34:06.823Z,1016.57
2017-02-19T08:35:18.459Z,1016.56
2017-02-19T08:36:29.899Z,1016.53
2017-02-19T08:37:41.346Z,1016.57
2017-02-19T08:38:52.799Z,1016.56
2017-02-19T08:40:04.632Z,1016.56
2017-02-19T08:41:16.072Z,1016.54
2017-02-19T08:42:27.758Z,1016.6
2017-02-19T08:43:39.201Z,1016.57
2017-02-19T08:44:50.651Z,1016.61
2017-02-19T08:46:02.110Z,1016.54
2017-02-19T08:47:13.549Z,1016.53
2017-02-19T08:48:24.985Z,1016.5
2017-02-19T08:49:36.414Z,1016.51
2017-02-19T08:50:48.080Z,1016.47
2017-02-19T08:51:59.579Z,1016.44
2017-02-19T08:53:11.022Z,1016.41
2017-02-19T08:54:22.478Z,1016.35
2017-02-19T08:55:34.142Z,1016.36
2017-02-19T08:56:45.574Z,1016.36
2017-02-19T08:57:57.027Z,1016.36
2017-02-19T08:59:08.465Z,1016.34
2017-02-19T09:00:19.907Z,1016.34
2017-02-19T09:01:31.345Z,1016.31
2017-02-19T09:02:42.836Z,1016.32
2017-02-19T09:03:54.280Z,1016.37
2017-02-19T09:05:05.697Z,1016.42
2017-02-19T09:06:17.140Z,1016.38
2017-02-19T09:07:28.579Z,1016.45
2017-02-19T09:08:40.037Z,1016.33
2017-02-19T09:09:51.502Z,1016.34
2017-02-19T09:11:02.936Z,1016.32
2017-02-19T09:12:14.361Z,1016.24
2017-02-19T09:13:25.841Z,1016.2
2017-02-19T09:14:37.268Z,1016.14
2017-02-19T09:15:48.714Z,1016.25
2017-02-19T09:17:00.165Z,1016.14
2017-02-19T09:18:11.591Z,1016.14
2017-02-19T09:19:23.060Z,1016.13
2017-02-19T09:20:34.526Z,1016.13
2017-02-19T09:21:46.171Z,1016.1
2017-02-19T09:22:57.599Z,1016.1
2017-02-19T09:24:09.243Z,1016.08
2017-02-19T09:25:20.665Z,1016.12
2017-02-19T09:26:32.309Z,1016.06
2017-02-19T09:27:43.742Z,1016.02
2017-02-19T09:28:55.186Z,1016.02
2017-02-19T09:30:06.629Z,1016.03
2017-02-19T09:31:18.101Z,1016.08
2017-02-19T09:32:29.525Z,1016.03
2017-02-19T09:33:40.960Z,1016.05
2017-02-19T09:34:52.390Z,1016
2017-02-19T09:36:04.024Z,1015.94
2017-02-19T09:37:15.670Z,1015.93
2017-02-19T09:38:27.113Z,1015.86
2017-02-19T09:39:38.546Z,1015.92
2017-02-19T09:40:50.027Z,1015.88
2017-02-19T09:42:01.459Z,1015.96
2017-02-19T09:43:12.899Z,1015.93
2017-02-19T09:44:24.347Z,1015.98
2017-02-19T09:45:36.007Z,1015.98
2017-02-19T09:46:47.454Z,1015.94
2017-02-19T09:47:58.899Z,1015.95
2017-02-19T09:49:10.369Z,1015.97
2017-02-19T09:50:21.802Z,1015.94
2017-02-19T09:51:33.490Z,1016.01
2017-02-19T09:52:44.941Z,1015.99
2017-02-19T09:53:56.579Z,1016.01
2017-02-19T09:55:08.020Z,1016.01
2017-02-19T09:56:19.455Z,1016.01
2017-02-19T09:57:31.101Z,1016.05
2017-02-19T09:58:42.752Z,1016.09
2017-02-19T09:59:54.208Z,1016.1
2017-02-19T10:01:05.637Z,1016.1
2017-02-19T10:02:17.112Z,1016.09
2017-02-19T10:03:28.759Z,1016.09
2017-02-19T10:04:40.200Z,1016.01
2017-02-19T10:05:51.857Z,1015.97
2017-02-19T10:07:03.494Z,1015.99
2017-02-19T10:08:14.969Z,1016.03
2017-02-19T10:09:26.438Z,1016.01
2017-02-19T10:10:37.876Z,1015.99
2017-02-19T10:11:49.311Z,1015.97
2017-02-19T10:13:00.776Z,1015.93
2017-02-19T10:14:12.285Z,1015.96
2017-02-19T10:15:23.727Z,1015.93
2017-02-19T10:16:35.367Z,1015.95
2017-02-19T10:17:46.806Z,1015.98
2017-02-19T10:18:58.242Z,1015.98
2017-02-19T10:20:09.701Z,1015.96
2017-02-19T10:21:21.139Z,1015.97
2017-02-19T10:22:32.781Z,1015.93
2017-02-19T10:23:44.280Z,1015.91
2017-02-19T10:24:55.729Z,1015.86
2017-02-19T10:26:07.366Z,1015.81
2017-02-19T10:27:18.800Z,1015.85
2017-02-19T10:28:30.228Z,1015.85
2017-02-19T10:29:41.875Z,1015.74
2017-02-19T10:30:53.326Z,1015.66
2017-02-19T10:32:04.768Z,1015.66
2017-02-19T10:33:16.211Z,1015.66
2017-02-19T10:34:27.698Z,1015.72
2017-02-19T10:35:39.129Z,1015.74
2017-02-19T10:36:50.553Z,1015.78
2017-02-19T10:38:01.987Z,1015.84
2017-02-19T10:39:13.650Z,1015.88
2017-02-19T10:40:25.309Z,1015.9
2017-02-19T10:41:36.740Z,1015.9
2017-02-19T10:42:48.399Z,1015.9
2017-02-19T10:43:59.844Z,1015.87
2017-02-19T10:45:11.372Z,1015.83
2017-02-19T10:46:22.815Z,1015.93
2017-02-19T10:47:34.251Z,1015.89
2017-02-19T10:48:45.707Z,1015.91
2017-02-19T10:49:57.163Z,1015.87
2017-02-19T10:51:08.622Z,1015.85
2017-02-19T10:52:20.070Z,1015.82
2017-02-19T10:53:31.698Z,1015.82
2017-02-19T10:54:43.146Z,1015.86
2017-02-19T10:55:54.596Z,1015.81
2017-02-19T10:57:06.297Z,1015.8
2017-02-19T10:58:17.949Z,1015.85
2017-02-19T10:59:29.379Z,1015.84
2017-02-19T11:00:40.825Z,1015.84
2017-02-19T11:01:52.482Z,1015.83
2017-02-19T11:03:03.918Z,1015.85
2017-02-19T11:04:15.563Z,1015.8
2017-02-19T11:05:26.979Z,1015.8
2017-02-19T11:06:38.661Z,1015.79
2017-02-19T11:07:50.090Z,1015.77
2017-02-19T11:09:01.536Z,1015.75
2017-02-19T11:10:13.173Z,1015.72
2017-02-19T11:11:24.620Z,1015.7
2017-02-19T11:12:36.052Z,1015.74
2017-02-19T11:13:47.715Z,1015.8
2017-02-19T11:14:59.152Z,1015.85
2017-02-19T11:16:10.598Z,1015.78
2017-02-19T11:17:22.089Z,1015.84
2017-02-19T11:18:33.536Z,1015.84
2017-02-19T11:19:45.172Z,1015.87
2017-02-19T11:20:57.018Z,1015.85
2017-02-19T11:22:08.667Z,1015.81
2017-02-19T11:23:20.105Z,1015.82
2017-02-19T11:24:31.531Z,1015.82
2017-02-19T11:25:42.972Z,1015.77
2017-02-19T11:26:54.410Z,1015.76
2017-02-19T11:28:05.889Z,1015.73
2017-02-19T11:29:17.323Z,1015.76
2017-02-19T11:30:28.773Z,1015.76
2017-02-19T11:31:40.217Z,1015.71
2017-02-19T11:32:51.661Z,1015.73
2017-02-19T11:34:03.124Z,1015.72
2017-02-19T11:35:14.555Z,1015.79
2017-02-19T11:36:25.989Z,1015.71
2017-02-19T11:37:37.424Z,1015.73
2017-02-19T11:38:48.869Z,1015.7
2017-02-19T11:40:00.333Z,1015.75
2017-02-19T11:41:11.977Z,1015.72
2017-02-19T11:42:23.410Z,1015.67
2017-02-19T11:43:34.854Z,1015.71
2017-02-19T11:44:46.298Z,1015.63
2017-02-19T11:45:57.994Z,1015.63
2017-02-19T11:47:09.436Z,1015.63
2017-02-19T11:48:20.881Z,1015.61
2017-02-19T11:49:32.336Z,1015.59
2017-02-19T11:50:43.787Z,1015.55
2017-02-19T11:51:55.225Z,1015.57
2017-02-19T11:53:06.662Z,1015.61
2017-02-19T11:54:18.089Z,1015.59
2017-02-19T11:55:29.576Z,1015.59
2017-02-19T11:56:41.021Z,1015.57
2017-02-19T11:57:52.484Z,1015.58
2017-02-19T11:59:03.943Z,1015.57
2017-02-19T12:00:15.390Z,1015.58
2017-02-19T12:01:26.830Z,1015.57
2017-02-19T12:02:38.269Z,1015.53
2017-02-19T12:03:49.709Z,1015.55
2017-02-19T12:05:01.158Z,1015.53
2017-02-19T12:06:12.675Z,1015.55
2017-02-19T12:07:24.311Z,1015.52
2017-02-19T12:08:35.984Z,1015.57
2017-02-19T12:09:47.425Z,1015.54
2017-02-19T12:11:30.389Z,1015.56
2017-02-19T12:12:41.832Z,1015.56
2017-02-19T12:13:53.307Z,1015.53
2017-02-19T12:15:05.153Z,1015.48
2017-02-19T12:16:16.839Z,1015.49
2017-02-19T12:17:28.283Z,1015.49
2017-02-19T12:18:39.718Z,1015.44
2017-02-19T12:19:51.164Z,1015.45
2017-02-19T12:21:02.626Z,1015.49
2017-02-19T12:22:14.058Z,1015.43
2017-02-19T12:23:25.500Z,1015.43
2017-02-19T12:24:36.950Z,1015.41
2017-02-19T12:25:48.382Z,1015.39
2017-02-19T12:26:59.875Z,1015.34
2017-02-19T12:28:11.519Z,1015.33
2017-02-19T12:29:22.957Z,1015.32
2017-02-19T12:30:34.694Z,1015.36
2017-02-19T12:31:46.127Z,1015.37
2017-02-19T12:32:57.554Z,1015.34
2017-02-19T12:34:09.200Z,1015.35
2017-02-19T12:35:20.630Z,1015.34
2017-02-19T12:36:32.071Z,1015.34
2017-02-19T12:37:43.560Z,1015.29
2017-02-19T12:38:55.213Z,1015.31
2017-02-19T12:40:06.645Z,1015.28
2017-02-19T12:41:18.077Z,1015.29
2017-02-19T12:42:29.502Z,1015.3
2017-02-19T12:43:40.939Z,1015.24
2017-02-19T12:44:52.602Z,1015.27
2017-02-19T12:46:04.039Z,1015.3
2017-02-19T12:47:15.688Z,1015.25
2017-02-19T12:48:27.529Z,1015.25
2017-02-19T12:49:39.001Z,1015.22
2017-02-19T12:50:50.636Z,1015.21
2017-02-19T12:52:02.255Z,1015.2
2017-02-19T12:53:13.910Z,1015.21
2017-02-19T12:54:25.397Z,1015.21
2017-02-19T12:55:36.837Z,1015.17
2017-02-19T12:56:48.287Z,1015.18
2017-02-19T12:57:59.715Z,1015.18
2017-02-19T12:59:11.159Z,1015.13
2017-02-19T13:00:22.794Z,1015.14
2017-02-19T13:01:34.223Z,1015.14
2017-02-19T13:02:45.672Z,1015.12
2017-02-19T13:03:57.160Z,1015.16
2017-02-19T13:05:08.636Z,1015.05
2017-02-19T13:06:20.095Z,1015.09
2017-02-19T13:07:31.736Z,1015.11
2017-02-19T13:08:43.358Z,1015.06
2017-02-19T13:09:54.854Z,1015.09
2017-02-19T13:11:06.304Z,1015.04
2017-02-19T13:12:17.752Z,1015.06
2017-02-19T13:13:29.194Z,1015.08
2017-02-19T13:14:40.694Z,1015.1
2017-02-19T13:15:52.144Z,1015.11
2017-02-19T13:17:03.577Z,1015.08
2017-02-19T13:18:15.022Z,1015.09
2017-02-19T13:19:26.673Z,1015.09
2017-02-19T13:20:38.126Z,1015.1
2017-02-19T13:21:49.760Z,1015.07
2017-02-19T13:23:01.205Z,1015.07
2017-02-19T13:24:12.640Z,1015.06
2017-02-19T13:25:24.137Z,1015.03
2017-02-19T13:26:35.595Z,1015.07
2017-02-19T13:27:47.025Z,1015.03
2017-02-19T13:28:58.470Z,1014.99
2017-02-19T13:30:10.126Z,1015
2017-02-19T13:31:21.621Z,1015.01
2017-02-19T13:32:33.087Z,1015.04
2017-02-19T13:33:44.529Z,1015.06
2017-02-19T13:34:55.981Z,1014.98
2017-02-19T13:36:07.402Z,1015
2017-02-19T13:37:18.841Z,1014.95
2017-02-19T13:38:30.495Z,1014.92
2017-02-19T13:39:41.943Z,1014.91
2017-02-19T13:40:53.368Z,1014.95
2017-02-19T13:42:04.850Z,1014.89
2017-02-19T13:43:16.534Z,1014.93
2017-02-19T13:44:27.987Z,1014.91
2017-02-19T13:45:39.417Z,1014.92
2017-02-19T13:46:50.839Z,1014.87
2017-02-19T13:48:02.536Z,1014.84
2017-02-19T13:49:14.166Z,1014.82
2017-02-19T13:50:25.801Z,1014.83
2017-02-19T13:51:37.246Z,1014.84
2017-02-19T13:52:48.730Z,1014.86
2017-02-19T13:54:00.163Z,1014.83
2017-02-19T13:55:11.595Z,1014.85
2017-02-19T13:56:23.026Z,1014.85
2017-02-19T13:57:34.467Z,1014.84
2017-02-19T13:58:45.915Z,1014.86
2017-02-19T13:59:57.362Z,1014.88
2017-02-19T14:01:08.800Z,1014.85
2017-02-19T14:02:20.239Z,1014.86
2017-02-19T14:03:31.943Z,1014.83
2017-02-19T14:04:43.575Z,1014.84
2017-02-19T14:05:55.030Z,1014.83
2017-02-19T14:07:06.482Z,1014.79
2017-02-19T14:08:17.935Z,1014.81
2017-02-19T14:09:29.376Z,1014.83
2017-02-19T14:10:40.815Z,1014.83
2017-02-19T14:11:52.241Z,1014.85
2017-02-19T14:13:03.673Z,1014.88
2017-02-19T14:14:15.173Z,1014.85
2017-02-19T14:15:26.613Z,1014.9
2017-02-19T14:16:38.045Z,1014.84
2017-02-19T14:17:49.487Z,1014.83
2017-02-19T14:19:00.948Z,1014.84
2017-02-19T14:20:12.404Z,1014.82
2017-02-19T14:21:23.846Z,1014.85
2017-02-19T14:22:35.283Z,1014.86
2017-02-19T14:23:46.753Z,1014.86
2017-02-19T14:24:58.209Z,1014.87
2017-02-19T14:26:09.888Z,1014.84
2017-02-19T14:27:21.325Z,1014.82
2017-02-19T14:28:32.806Z,1014.78